Local and Regional Airport Weather



KPVE - Beech River Regional Airport
Distance from station: NW 4mi, 6km
Updated: Fri, Aug-23-2019 5:15am CDT
Mist, Overcast
Mist, Overcast
 Wind from calm
Wind: Calm
Temperature: 70°F , 21°C
Dew Point: 68°F , 20°C
Humidity: 94%
Barometer: 29.99 inHg , 1015.6 hPa
Summary: Mist
Clouds: Overcast
Visibility: 1 1/2 miles , 2.4 km
Cloud details: Overcast 300 ft
2019/08/23 10:15 KPVE 231015Z AUTO 00000KT 1 1/2SM BR OVC003 21/20 A2999 RMK A01
KSNH - Savannah Hardin Co. Airport
Distance from station: S 34mi, 54km
Updated: Fri, Aug-23-2019 5:35am CDT
Mostly cloudy
Mostly cloudy
 Wind from calm
Wind: Calm
Temperature: 72°F , 22°C
Dew Point: 72°F , 22°C
Humidity: 100%
Barometer: 29.99 inHg , 1015.6 hPa
Clouds: Mostly cloudy
Visibility: 7 miles , 11 km
Cloud details: Partly cloudy 1000 ft
Partly cloudy 3100 ft
Mostly cloudy 4800 ft
2019/08/23 10:35 KSNH 231035Z AUTO 00000KT 7SM SCT010 SCT031 BKN048 22/22 A2999 RMK A01
 
KMKL - McKellar-Sipes Regional Airport
Distance from station: W 44mi, 72km
Updated: Fri, Aug-23-2019 5:31am CDT
Mist, Mostly cloudy
Mist, Mostly cloudy
 Wind from calm
Wind: Calm
Temperature: 72°F , 22°C
Dew Point: 72°F , 22°C
Humidity: 100%
Barometer: 30.01 inHg , 1016.3 hPa
Summary: Mist
Clouds: Mostly cloudy
Visibility: 6 miles , 10 km
Cloud details: Partly cloudy 200 ft
Mostly cloudy 600 ft
Mostly cloudy 3400 ft
2019/08/23 10:31 KMKL 231031Z AUTO 00000KT 6SM BR SCT002 BKN006 BKN034 22/22 A3001 RMK AO2 LTG DSNT N AND NW T02220222
KMSL - NW Alabama Regional Airport
Distance from station: SE 78mi, 126km
Updated: Fri, Aug-23-2019 5:08am CDT
Few Clouds
Few Clouds
 Wind from calm
Wind: Calm
Temperature: 73°F , 23°C
Dew Point: 70°F , 21°C
Humidity: 89%
Barometer: 30.01 inHg , 1016.3 hPa
Clouds: Few Clouds
Visibility: 10 miles , 16 km
Cloud details: Few Clouds 700 ft
2019/08/23 10:08 KMSL 231008Z AUTO 00000KT 10SM FEW007 23/21 A3001 RMK AO2 T02280211
 
KBNA - Nashville International Airport
Distance from station: NE 97mi, 157km
Updated: Fri, Aug-23-2019 4:53am CDT
Mist, Overcast
Mist, Overcast
 Wind from calm
Wind: Calm
Temperature: 73°F , 23°C
Dew Point: 72°F , 22°C
Humidity: 94%
Barometer: 30.01 inHg , 1016.3 hPa
Summary: Mist
Clouds: Overcast
Visibility: 5 miles , 8 km
Cloud details: Overcast 300 ft
2019/08/23 09:53 KBNA 230953Z 00000KT 5SM BR OVC003 23/22 A3001 RMK AO2 SLP156 T02330222
KMEM - Memphis International Airport
Distance from station: W 108mi, 173km
Updated: Fri, Aug-23-2019 5:23am CDT
Partly cloudy
Partly cloudy
 Wind from SW
Wind: SW 3 mph , 6 km/h
Temperature: 75°F , 24°C
Dew Point: 73°F , 23°C
Humidity: 94%
Barometer: 29.97 inHg , 1014.9 hPa
Clouds: Partly cloudy
Visibility: 10 miles , 16 km
Cloud details: Few Clouds 1700 ft
Partly cloudy 2700 ft
2019/08/23 10:23 KMEM 231023Z 23003KT 10SM FEW017 SCT027 24/23 A2997 RMK AO2 T02440233
 
KTYS - Knoxville McGhee Tyson Airport
Distance from station: E 234mi, 377km
Updated: Fri, Aug-23-2019 4:53am CDT
Mostly cloudy
Mostly cloudy
 Wind from SSW
Wind: SSW 3 mph , 6 km/h
Temperature: 72°F , 22°C
Dew Point: 70°F , 21°C
Humidity: 94%
Barometer: 30.03 inHg , 1016.9 hPa
Clouds: Mostly cloudy
Visibility: 10 miles , 16 km
Cloud details: Partly cloudy 5000 ft
Mostly cloudy 6500 ft
2019/08/23 09:53 KTYS 230953Z 21003KT 10SM SCT050 BKN065 22/21 A3003 RMK AO2 RAB06E21 SLP156 P0001 T02220211 $
KSTL - St. Louis International Airport
Distance from station: NW 247mi, 398km
Updated: Fri, Aug-23-2019 4:51am CDT
Mostly cloudy
Mostly cloudy
 Wind from calm
Wind: Calm
Temperature: 68°F , 20°C
Dew Point: 64°F , 18°C
Humidity: 88%
Barometer: 30.04 inHg , 1017.3 hPa
Clouds: Mostly cloudy
Visibility: 10 miles , 16 km
Cloud details: Partly cloudy 11000 ft
Mostly cloudy 25000 ft
2019/08/23 09:51 KSTL 230951Z 00000KT 10SM SCT110 BKN250 20/18 A3004 RMK AO2 PRESRR SLP165 T02000178 $

Refresh Page for latest data.